Time;durP1;ratioP1;P1;durP2;ratioP2;P2;SDS_P1;SDS_P2;PMS_P1;PMS_P2;Temp;Humidity;BMP_temperature;BMP_pressure;BME280_temperature;BME280_humidity;BME280_pressure;Samples;Min_cycle;Max_cycle;Signal;HPM_P1;HPM_P2
2022/06/03 03:19:59;;;;;;;;;;;17.40;61.10;;;;;;4811221;29;19994;-70
2022/06/03 03:22:44;;;;;;;;;;;17.30;60.50;;;;;;4811083;29;19936;-71
2022/06/03 03:25:19;;;;;;;;;;;17.20;60.90;;;;;;4795669;29;20420;-70
2022/06/03 03:27:44;;;;;;;;;;;17.10;61.20;;;;;;4795753;29;20268;-70
2022/06/03 03:30:15;;;;;;;;;;;17.00;61.30;;;;;;4806613;29;19936;-70
2022/06/03 03:32:59;;;;;;;;;;;17.00;62.20;;;;;;4802190;29;20307;-71
2022/06/03 03:35:37;;;;;;;;;;;17.00;62.50;;;;;;4792867;29;19926;-73
2022/06/03 03:38:06;;;;;;;;;;;17.10;62.80;;;;;;4793204;30;20277;-71
2022/06/03 03:40:50;;;;;;;;;;;17.10;63.00;;;;;;4793162;30;20012;-73
2022/06/03 03:43:34;;;;;;;;;;;17.10;63.10;;;;;;4805986;29;20019;-72
2022/06/03 03:46:23;;;;;;;;;;;17.20;63.60;;;;;;4810816;29;19925;-72
2022/06/03 03:49:07;;;;;;;;;;;17.20;63.50;;;;;;4736652;29;19992;-72
2022/06/03 03:51:46;;;;;;;;;;;17.30;63.70;;;;;;4801544;29;19925;-72
2022/06/03 03:54:24;;;;;;;;;;;17.40;63.90;;;;;;4795347;29;19924;-73
2022/06/03 03:56:59;;;;;;;;;;;17.60;63.90;;;;;;4791867;30;19972;-71
2022/06/03 03:59:42;;;;;;;;;;;17.70;63.80;;;;;;4777050;30;19925;-74
2022/06/03 04:02:20;;;;;;;;;;;17.70;61.40;;;;;;4803293;29;19935;-73
2022/06/03 04:05:05;;;;;;;;;;;17.80;63.40;;;;;;4792000;30;20333;-72
2022/06/03 04:07:45;;;;;;;;;;;18.00;63.30;;;;;;4791780;29;20334;-72
2022/06/03 04:10:23;;;;;;;;;;;18.20;63.20;;;;;;4792747;30;19937;-73
2022/06/03 04:12:49;;;;;;;;;;;18.30;63.10;;;;;;4806993;29;19936;-72
2022/06/03 04:15:30;;;;;;;;;;;18.40;62.80;;;;;;4794594;29;19925;-73
2022/06/03 04:18:04;;;;;;;;;;;18.50;62.80;;;;;;4792744;29;20244;-72
2022/06/03 04:20:33;;;;;;;;;;;18.50;62.80;;;;;;4792640;30;19936;-72
2022/06/03 04:23:17;;;;;;;;;;;18.50;62.70;;;;;;4792577;30;19925;-74
2022/06/03 04:26:06;;;;;;;;;;;18.60;62.80;;;;;;4793359;29;19943;-73
2022/06/03 04:28:35;;;;;;;;;;;18.60;62.90;;;;;;4768241;29;20320;-75
2022/06/03 04:31:09;;;;;;;;;;;18.60;62.80;;;;;;4794297;29;19925;-73
2022/06/03 04:33:51;;;;;;;;;;;18.60;62.80;;;;;;4799296;29;19937;-74
2022/06/03 04:36:33;;;;;;;;;;;18.60;62.80;;;;;;4776583;30;19932;-72
2022/06/03 04:38:59;;;;;;;;;;;18.60;62.60;;;;;;4801050;29;19925;-73
2022/06/03 04:41:27;;;;;;;;;;;18.50;62.30;;;;;;4810245;29;20073;-71
2022/06/03 04:44:01;;;;;;;;;;;18.50;62.60;;;;;;4810246;29;19929;-71
2022/06/03 04:46:45;;;;;;;;;;;18.50;62.60;;;;;;4809855;29;19997;-73
2022/06/03 04:49:23;;;;;;;;;;;18.40;62.80;;;;;;4797905;29;19933;-73
2022/06/03 04:52:08;;;;;;;;;;;18.40;62.80;;;;;;4799932;29;19936;-72
2022/06/03 04:54:33;;;;;;;;;;;18.40;62.60;;;;;;4787348;29;20070;-73
2022/06/03 04:57:05;;;;;;;;;;;18.40;62.70;;;;;;4809585;29;19955;-71
2022/06/03 04:59:31;;;;;;;;;;;18.40;63.00;;;;;;4786626;30;19926;-74
2022/06/03 05:02:20;;;;;;;;;;;18.30;63.30;;;;;;4801080;29;20276;-71
2022/06/03 05:04:58;;;;;;;;;;;18.30;63.90;;;;;;4786885;29;20268;-72
2022/06/03 05:07:33;;;;;;;;;;;18.30;64.30;;;;;;4793774;29;19939;-71
2022/06/03 05:10:02;;;;;;;;;;;18.30;64.50;;;;;;4775821;30;19925;-69
2022/06/03 05:12:46;;;;;;;;;;;18.30;65.80;;;;;;4791624;30;19925;-72
2022/06/03 05:15:14;;;;;;;;;;;18.10;60.80;;;;;;4797326;29;19936;-72
2022/06/03 05:18:03;;;;;;;;;;;18.00;62.30;;;;;;4796141;29;20355;-74
2022/06/03 05:20:47;;;;;;;;;;;18.00;62.60;;;;;;4810525;29;20396;-70
2022/06/03 05:23:25;;;;;;;;;;;17.90;62.40;;;;;;4827877;29;19924;-72
2022/06/03 05:26:03;;;;;;;;;;;17.80;62.60;;;;;;4811625;29;19998;-73
2022/06/03 05:28:28;;;;;;;;;;;17.90;64.50;;;;;;4826631;29;20379;-71
2022/06/03 05:30:57;;;;;;;;;;;18.00;64.40;;;;;;4827347;29;19958;-72
2022/06/03 05:33:23;;;;;;;;;;;17.90;63.70;;;;;;4827483;29;19924;-72
2022/06/03 05:36:04;;;;;;;;;;;17.90;63.10;;;;;;4827493;29;19924;-71
2022/06/03 05:38:41;;;;;;;;;;;17.80;62.70;;;;;;4812833;29;19936;-71
2022/06/03 05:44:10;;;;;;;;;;;17.70;63.10;;;;;;4809030;29;19936;-70
2022/06/03 05:46:56;;;;;;;;;;;17.70;64.60;;;;;;4808802;29;20284;-72
2022/06/03 05:49:40;;;;;;;;;;;17.70;64.50;;;;;;4789040;29;20322;-72
2022/06/03 05:52:09;;;;;;;;;;;17.70;64.20;;;;;;4807892;29;19990;-72
2022/06/03 05:54:39;;;;;;;;;;;17.70;64.20;;;;;;4808786;29;20059;-74
2022/06/03 05:57:08;;;;;;;;;;;17.80;64.70;;;;;;4781588;29;20029;-72
2022/06/03 05:59:56;;;;;;;;;;;17.90;64.00;;;;;;4827088;29;20261;-73
2022/06/03 06:02:33;;;;;;;;;;;17.90;63.90;;;;;;4800746;29;19929;-70
2022/06/03 06:05:01;;;;;;;;;;;17.90;63.50;;;;;;4807810;29;19933;-71
2022/06/03 06:07:50;;;;;;;;;;;17.90;63.10;;;;;;4792856;29;19925;-72
2022/06/03 06:10:21;;;;;;;;;;;18.00;63.10;;;;;;4808552;29;20289;-72
2022/06/03 06:13:05;;;;;;;;;;;18.00;63.30;;;;;;4808830;29;19993;-71
2022/06/03 06:15:33;;;;;;;;;;;18.10;62.60;;;;;;4808352;29;19936;-72
2022/06/03 06:17:59;;;;;;;;;;;18.10;62.00;;;;;;4808223;29;19925;-75
2022/06/03 06:20:27;;;;;;;;;;;18.20;61.90;;;;;;4822703;29;19925;-72
2022/06/03 06:22:56;;;;;;;;;;;18.20;61.70;;;;;;4821770;29;19932;-72
2022/06/03 06:25:29;;;;;;;;;;;18.30;61.40;;;;;;4826711;29;19932;-74
2022/06/03 06:27:57;;;;;;;;;;;18.30;61.10;;;;;;4826574;29;20338;-73
2022/06/03 06:30:25;;;;;;;;;;;18.40;61.10;;;;;;4826175;29;20268;-74
2022/06/03 06:33:05;;;;;;;;;;;18.40;60.50;;;;;;4813194;29;19925;-72
2022/06/03 06:35:44;;;;;;;;;;;18.50;60.40;;;;;;4807680;29;19925;-75
2022/06/03 06:38:09;;;;;;;;;;;18.50;60.50;;;;;;4792763;29;19982;-73
2022/06/03 06:40:37;;;;;;;;;;;18.50;60.80;;;;;;4808998;29;20371;-74
2022/06/03 06:43:22;;;;;;;;;;;18.50;61.80;;;;;;4821688;29;19935;-71
2022/06/03 06:45:50;;;;;;;;;;;18.60;60.80;;;;;;4826110;29;20002;-71
2022/06/03 06:48:22;;;;;;;;;;;18.50;60.00;;;;;;4826579;29;20336;-73
2022/06/03 06:51:13;;;;;;;;;;;18.40;59.90;;;;;;4825820;29;19925;-76
2022/06/03 06:53:45;;;;;;;;;;;18.40;60.00;;;;;;4808044;29;19925;-73
2022/06/03 06:56:17;;;;;;;;;;;18.40;60.70;;;;;;4808010;29;19936;-74
2022/06/03 06:58:50;;;;;;;;;;;18.40;61.20;;;;;;4808736;29;20032;-72
2022/06/03 07:01:25;;;;;;;;;;;18.40;61.40;;;;;;4807961;29;20336;-74
2022/06/03 07:03:54;;;;;;;;;;;18.40;61.60;;;;;;4810147;29;20329;-73
2022/06/03 07:06:26;;;;;;;;;;;18.50;62.00;;;;;;4826686;29;20024;-74
2022/06/03 07:08:57;;;;;;;;;;;18.50;62.50;;;;;;4826213;29;19952;-75
2022/06/03 07:11:31;;;;;;;;;;;18.50;62.70;;;;;;4810060;29;19925;-74
2022/06/03 07:14:02;;;;;;;;;;;18.60;62.70;;;;;;4822388;29;19935;-74
2022/06/03 07:22:03;;;;;;;;;;;18.60;62.90;;;;;;4812762;29;19928;-75
2022/06/03 07:24:32;;;;;;;;;;;18.60;62.90;;;;;;4826357;29;20272;-73
2022/06/03 07:27:00;;;;;;;;;;;18.60;62.90;;;;;;4810251;29;20012;-74
2022/06/03 07:29:38;;;;;;;;;;;18.70;63.10;;;;;;4826287;29;20077;-74
2022/06/03 07:32:08;;;;;;;;;;;18.70;63.20;;;;;;4820431;29;20400;-75
2022/06/03 07:34:37;;;;;;;;;;;18.70;63.20;;;;;;4808027;29;19928;-72
2022/06/03 07:37:06;;;;;;;;;;;18.70;63.40;;;;;;4792122;29;19925;-76
2022/06/03 07:39:51;;;;;;;;;;;18.70;63.60;;;;;;4792575;29;20002;-76
2022/06/03 07:42:34;;;;;;;;;;;18.80;63.40;;;;;;4812918;29;19991;-78
2022/06/03 07:45:00;;;;;;;;;;;18.70;63.60;;;;;;4828936;29;20358;-77
2022/06/03 07:47:28;;;;;;;;;;;18.80;63.50;;;;;;4829297;29;19989;-78
2022/06/03 07:49:58;;;;;;;;;;;18.80;63.60;;;;;;4828827;29;20004;-75
2022/06/03 07:52:41;;;;;;;;;;;18.80;63.60;;;;;;4828393;29;19929;-75
2022/06/03 07:55:11;;;;;;;;;;;18.80;63.60;;;;;;4828912;29;19925;-75
2022/06/03 07:57:36;;;;;;;;;;;18.80;63.50;;;;;;4828728;29;19924;-75
2022/06/03 08:00:05;;;;;;;;;;;18.80;63.60;;;;;;4813646;29;19952;-74
2022/06/03 08:02:31;;;;;;;;;;;18.90;63.70;;;;;;4827300;29;19924;-74
2022/06/03 08:05:17;;;;;;;;;;;18.90;63.80;;;;;;4828577;29;20311;-74
2022/06/03 08:13:17;;;;;;;;;;;18.90;63.70;;;;;;4811922;29;19925;-74
2022/06/03 08:16:09;;;;;;;;;;;18.90;63.60;;;;;;4828519;29;19931;-74
2022/06/03 08:18:40;;;;;;;;;;;19.00;63.70;;;;;;4814914;29;19925;-74
2022/06/03 08:21:13;;;;;;;;;;;19.00;63.80;;;;;;4810197;29;19925;-75
2022/06/03 08:23:39;;;;;;;;;;;19.00;63.60;;;;;;4809795;29;20015;-75
2022/06/03 08:26:09;;;;;;;;;;;19.00;63.70;;;;;;4810311;29;19988;-74
2022/06/03 08:28:37;;;;;;;;;;;19.00;63.80;;;;;;4794558;29;19925;-75
2022/06/03 08:31:04;;;;;;;;;;;19.00;63.70;;;;;;4810393;29;19932;-75
2022/06/03 08:33:30;;;;;;;;;;;19.10;63.70;;;;;;4793341;29;19936;-75
2022/06/03 08:35:56;;;;;;;;;;;19.00;63.70;;;;;;4792520;30;19925;-76
2022/06/03 08:38:25;;;;;;;;;;;19.00;63.80;;;;;;4791979;30;19936;-74
2022/06/03 08:41:05;;;;;;;;;;;19.10;63.80;;;;;;4792118;30;19955;-77
2022/06/03 08:43:37;;;;;;;;;;;19.10;63.90;;;;;;4807464;29;19925;-74
2022/06/03 08:46:14;;;;;;;;;;;19.10;63.80;;;;;;4794154;29;19925;-75
2022/06/03 08:48:41;;;;;;;;;;;19.10;63.80;;;;;;4779600;29;19925;-77
2022/06/03 08:51:12;;;;;;;;;;;19.10;63.90;;;;;;4810308;29;19936;-75
2022/06/03 08:53:53;;;;;;;;;;;19.10;63.80;;;;;;4793082;29;19925;-75
2022/06/03 08:56:21;;;;;;;;;;;19.10;63.80;;;;;;4809835;29;19940;-75
2022/06/03 08:58:58;;;;;;;;;;;19.10;63.70;;;;;;4809850;29;19925;-77
2022/06/03 09:01:43;;;;;;;;;;;19.10;63.80;;;;;;4809989;29;20054;-74
2022/06/03 09:04:17;;;;;;;;;;;19.10;63.80;;;;;;4791959;30;19926;-74
2022/06/03 09:06:49;;;;;;;;;;;19.10;63.80;;;;;;4791759;30;20207;-75
2022/06/03 09:09:22;;;;;;;;;;;19.20;63.80;;;;;;4790859;30;20380;-74
2022/06/03 09:12:06;;;;;;;;;;;19.10;63.80;;;;;;4792169;29;19925;-74
2022/06/03 09:14:32;;;;;;;;;;;19.20;63.90;;;;;;4791519;30;19925;-75
2022/06/03 09:17:07;;;;;;;;;;;19.20;63.80;;;;;;4791586;30;19937;-76
2022/06/03 09:19:36;;;;;;;;;;;19.20;63.90;;;;;;4792451;29;20019;-76
2022/06/03 09:22:07;;;;;;;;;;;19.20;63.90;;;;;;4793561;29;19925;-76
2022/06/03 09:24:37;;;;;;;;;;;19.20;63.90;;;;;;4809443;29;19952;-75
2022/06/03 09:27:04;;;;;;;;;;;19.20;63.80;;;;;;4793433;29;19932;-74
2022/06/03 09:29:30;;;;;;;;;;;19.20;63.90;;;;;;4809120;29;19975;-72
2022/06/03 09:31:58;;;;;;;;;;;19.20;63.40;;;;;;4809381;29;19925;-73
2022/06/03 09:34:32;;;;;;;;;;;19.20;63.00;;;;;;4808731;29;20099;-71
2022/06/03 09:36:59;;;;;;;;;;;19.20;63.00;;;;;;4809089;29;19925;-73
2022/06/03 09:39:25;;;;;;;;;;;19.20;63.10;;;;;;4793133;29;20333;-74
2022/06/03 09:41:55;;;;;;;;;;;19.20;63.20;;;;;;4810535;29;19936;-74
2022/06/03 09:44:21;;;;;;;;;;;19.20;63.30;;;;;;4827868;29;19924;-74
2022/06/03 09:46:48;;;;;;;;;;;19.30;63.50;;;;;;4827064;29;19925;-75
2022/06/03 09:49:17;;;;;;;;;;;19.30;63.50;;;;;;4827438;29;20005;-77
2022/06/03 09:51:56;;;;;;;;;;;19.20;63.50;;;;;;4826474;29;19924;-74
2022/06/03 09:54:27;;;;;;;;;;;19.30;63.60;;;;;;4809103;29;19925;-74
2022/06/03 09:56:56;;;;;;;;;;;19.30;63.60;;;;;;4808998;29;20329;-75
2022/06/03 09:59:23;;;;;;;;;;;19.30;63.60;;;;;;4808977;29;20032;-75
2022/06/03 10:01:49;;;;;;;;;;;19.30;63.50;;;;;;4813653;29;19936;-75
2022/06/03 10:04:16;;;;;;;;;;;19.30;63.50;;;;;;4809126;29;19925;-75
2022/06/03 10:06:49;;;;;;;;;;;19.30;64.30;;;;;;4807833;29;19976;-75
2022/06/03 10:17:39;;;;;;;;;;;19.30;63.50;;;;;;4808446;29;19925;-73
2022/06/03 10:20:08;;;;;;;;;;;19.30;63.10;;;;;;4808020;29;19936;-76
2022/06/03 10:22:34;;;;;;;;;;;19.30;63.20;;;;;;4791372;29;20012;-74
2022/06/03 10:24:59;;;;;;;;;;;19.30;63.20;;;;;;4819292;29;20012;-74
2022/06/03 10:27:26;;;;;;;;;;;19.30;63.20;;;;;;4825806;29;19921;-76
2022/06/03 10:29:52;;;;;;;;;;;19.30;63.60;;;;;;4825727;29;20431;-74
2022/06/03 10:32:21;;;;;;;;;;;19.40;63.60;;;;;;4826444;29;19925;-75
2022/06/03 10:34:47;;;;;;;;;;;19.40;63.60;;;;;;4793970;29;19973;-74
2022/06/03 10:37:15;;;;;;;;;;;19.40;63.80;;;;;;4791342;29;19964;-75
2022/06/03 10:39:43;;;;;;;;;;;19.40;63.60;;;;;;4807423;29;19920;-74
2022/06/03 10:42:12;;;;;;;;;;;19.40;63.50;;;;;;4807169;29;20388;-75
2022/06/03 10:44:42;;;;;;;;;;;19.40;63.50;;;;;;4821368;29;19925;-75
2022/06/03 10:47:19;;;;;;;;;;;19.40;63.50;;;;;;4825191;29;20324;-76
2022/06/03 10:50:05;;;;;;;;;;;19.40;63.60;;;;;;4825936;29;19924;-74
2022/06/03 11:01:23;;;;;;;;;;;19.40;63.90;;;;;;4791595;29;19921;-72
2022/06/03 11:03:50;;;;;;;;;;;19.40;63.90;;;;;;4791009;29;19921;-74
2022/06/03 11:06:18;;;;;;;;;;;19.40;63.90;;;;;;4807124;29;19989;-75
2022/06/03 11:09:02;;;;;;;;;;;19.40;63.90;;;;;;4807265;29;19929;-75
2022/06/03 11:11:39;;;;;;;;;;;19.40;64.20;;;;;;4807475;29;20043;-74
2022/06/03 11:14:38;;;;;;;;;;;19.40;64.20;;;;;;4807072;29;19932;-74
2022/06/03 11:17:04;;;;;;;;;;;19.40;64.10;;;;;;4782449;29;19928;-73
2022/06/03 11:19:35;;;;;;;;;;;19.40;64.20;;;;;;4773192;29;1146854;-75
2022/06/03 11:22:13;;;;;;;;;;;19.40;64.30;;;;;;4816777;29;19925;-75
2022/06/03 11:24:38;;;;;;;;;;;19.40;64.20;;;;;;4829521;29;19924;-75
2022/06/03 11:27:07;;;;;;;;;;;19.40;64.30;;;;;;4813486;29;19939;-75
2022/06/03 11:29:34;;;;;;;;;;;19.40;64.20;;;;;;4829316;29;19936;-74
2022/06/03 11:32:01;;;;;;;;;;;19.40;64.20;;;;;;4812993;29;20260;-74
2022/06/03 11:34:32;;;;;;;;;;;19.40;64.30;;;;;;4829198;29;20409;-74
2022/06/03 11:37:01;;;;;;;;;;;19.40;64.30;;;;;;4829381;29;19981;-74
2022/06/03 11:39:26;;;;;;;;;;;19.40;64.30;;;;;;4814069;29;19925;-74
2022/06/03 11:41:55;;;;;;;;;;;19.40;64.30;;;;;;4827888;29;19993;-74
2022/06/03 11:44:39;;;;;;;;;;;19.40;64.20;;;;;;4829150;29;19981;-76
2022/06/03 11:47:07;;;;;;;;;;;19.40;64.30;;;;;;4829119;29;19929;-74
2022/06/03 11:49:33;;;;;;;;;;;19.40;64.30;;;;;;4829309;29;20019;-73
2022/06/03 11:52:00;;;;;;;;;;;19.40;64.30;;;;;;4813037;29;19979;-75
2022/06/03 11:54:27;;;;;;;;;;;19.40;64.20;;;;;;4812966;29;19925;-75
2022/06/03 11:56:53;;;;;;;;;;;19.40;64.30;;;;;;4829366;29;19925;-75
2022/06/03 11:59:39;;;;;;;;;;;19.40;64.40;;;;;;4829142;29;19924;-74
2022/06/03 12:02:15;;;;;;;;;;;19.30;64.30;;;;;;4827959;29;20360;-73
2022/06/03 12:04:47;;;;;;;;;;;19.30;64.10;;;;;;4828960;29;20027;-77
2022/06/03 12:07:31;;;;;;;;;;;19.40;64.40;;;;;;4828786;29;19924;-75
2022/06/03 12:09:57;;;;;;;;;;;19.40;64.30;;;;;;4828611;29;19931;-75
2022/06/03 12:15:28;;;;;;;;;;;19.40;64.50;;;;;;4827862;29;19925;-74
2022/06/03 12:17:54;;;;;;;;;;;19.40;64.20;;;;;;4812226;29;19989;-71
2022/06/03 12:20:29;;;;;;;;;;;19.40;64.30;;;;;;4828789;29;19935;-76
2022/06/03 12:22:55;;;;;;;;;;;19.40;64.20;;;;;;4827893;29;19924;-75
2022/06/03 12:25:32;;;;;;;;;;;19.40;64.30;;;;;;4810302;29;19982;-77
2022/06/03 12:28:01;;;;;;;;;;;19.40;64.30;;;;;;4803154;29;20314;-75
2022/06/03 12:30:26;;;;;;;;;;;19.40;64.40;;;;;;4793869;29;20252;-75
2022/06/03 12:32:57;;;;;;;;;;;19.40;64.40;;;;;;4822529;29;19935;-74
2022/06/03 12:35:41;;;;;;;;;;;19.30;64.70;;;;;;4828223;29;19925;-75
2022/06/03 12:38:19;;;;;;;;;;;19.30;64.60;;;;;;4812581;29;19935;-75
2022/06/03 12:40:53;;;;;;;;;;;19.30;64.70;;;;;;4812533;29;19989;-76
2022/06/03 12:43:25;;;;;;;;;;;19.40;65.30;;;;;;4812303;29;19925;-76
2022/06/03 12:45:58;;;;;;;;;;;19.40;65.00;;;;;;4824009;29;19925;-76
2022/06/03 12:48:35;;;;;;;;;;;19.40;65.10;;;;;;4794002;29;19935;-74
2022/06/03 12:51:19;;;;;;;;;;;19.40;64.90;;;;;;4809756;29;19925;-78
2022/06/03 12:53:46;;;;;;;;;;;19.40;65.10;;;;;;4827946;29;20002;-76
2022/06/03 12:56:24;;;;;;;;;;;19.40;66.00;;;;;;4828512;29;19925;-75
2022/06/03 12:59:05;;;;;;;;;;;19.40;65.40;;;;;;4812045;29;19936;-75
2022/06/03 13:01:36;;;;;;;;;;;19.40;65.40;;;;;;4810761;29;19925;-77
2022/06/03 13:04:20;;;;;;;;;;;19.40;65.50;;;;;;4809728;29;19925;-78
2022/06/03 13:07:04;;;;;;;;;;;19.30;65.50;;;;;;4824849;29;19925;-76
2022/06/03 13:09:50;;;;;;;;;;;19.40;65.60;;;;;;4809511;29;19925;-74
2022/06/03 13:12:25;;;;;;;;;;;19.40;65.50;;;;;;4794037;29;19932;-75
2022/06/03 13:14:51;;;;;;;;;;;19.40;65.60;;;;;;4793570;29;19925;-77
2022/06/03 13:17:35;;;;;;;;;;;19.40;65.50;;;;;;4809665;29;20332;-76
2022/06/03 14:38:48;;;;;;;;;;;19.40;65.70;;;;;;4843325;29;20314;-76
2022/06/03 14:41:18;;;;;;;;;;;19.40;65.70;;;;;;4845059;29;19932;-75
2022/06/03 14:43:44;;;;;;;;;;;19.40;65.60;;;;;;4844500;29;19924;-74
2022/06/03 14:46:20;;;;;;;;;;;19.40;65.70;;;;;;4844610;29;20335;-74
2022/06/03 14:48:50;;;;;;;;;;;19.40;65.70;;;;;;4844403;29;19989;-75
2022/06/03 14:51:51;;;;;;;;;;;19.40;65.20;;;;;;4828733;29;19971;-74
2022/06/03 14:54:21;;;;;;;;;;;19.40;64.00;;;;;;4754333;30;20245;-72
2022/06/03 14:56:49;;;;;;;;;;;19.40;59.70;;;;;;4799766;29;19936;-73
2022/06/03 14:59:34;;;;;;;;;;;19.50;62.40;;;;;;4847992;29;20267;-71
2022/06/03 15:02:18;;;;;;;;;;;19.40;59.20;;;;;;4840591;29;20348;-77
2022/06/03 15:04:54;;;;;;;;;;;19.50;61.90;;;;;;4829895;29;20225;-77
2022/06/03 15:07:25;;;;;;;;;;;19.50;62.60;;;;;;4829964;29;19931;-77
2022/06/03 15:09:52;;;;;;;;;;;19.40;63.50;;;;;;4829689;29;19925;-77
2022/06/03 15:12:20;;;;;;;;;;;19.40;63.50;;;;;;4838088;29;20265;-76
2022/06/03 15:14:46;;;;;;;;;;;19.40;63.80;;;;;;4847883;29;19924;-77
2022/06/03 15:17:12;;;;;;;;;;;19.40;64.00;;;;;;4848238;29;20275;-77
2022/06/03 15:19:44;;;;;;;;;;;19.40;64.30;;;;;;4831975;29;19981;-76
2022/06/03 15:22:29;;;;;;;;;;;19.40;64.10;;;;;;4840140;29;20341;-76
2022/06/03 15:24:57;;;;;;;;;;;19.40;63.20;;;;;;4829379;29;19928;-76
2022/06/03 15:27:25;;;;;;;;;;;19.40;62.60;;;;;;4829973;29;19932;-76
2022/06/03 15:29:51;;;;;;;;;;;19.40;62.70;;;;;;4829057;29;20032;-77
2022/06/03 15:32:17;;;;;;;;;;;19.40;62.60;;;;;;4836261;29;19925;-76
2022/06/03 15:34:42;;;;;;;;;;;19.40;62.80;;;;;;4847710;29;19965;-74
2022/06/03 15:37:08;;;;;;;;;;;19.40;61.20;;;;;;4847550;29;19924;-75
2022/06/03 15:39:35;;;;;;;;;;;19.40;62.20;;;;;;4831247;29;19982;-75
2022/06/03 15:42:03;;;;;;;;;;;19.40;62.80;;;;;;4826172;29;20019;-78
2022/06/03 15:44:42;;;;;;;;;;;19.40;61.60;;;;;;4829140;29;20343;-77
2022/06/03 15:47:19;;;;;;;;;;;19.40;61.60;;;;;;4813521;29;19924;-77
2022/06/03 15:49:49;;;;;;;;;;;19.50;61.40;;;;;;4828874;29;19983;-75
2022/06/03 15:52:15;;;;;;;;;;;19.50;62.00;;;;;;4835177;29;19933;-74
2022/06/03 15:54:52;;;;;;;;;;;19.50;63.10;;;;;;4847393;29;19968;-76
2022/06/03 15:57:23;;;;;;;;;;;19.50;62.80;;;;;;4847749;29;20004;-77
2022/06/03 15:59:52;;;;;;;;;;;19.60;62.40;;;;;;4846984;29;19924;-76
2022/06/03 16:02:35;;;;;;;;;;;19.60;62.90;;;;;;4821104;29;20322;-78
2022/06/03 16:05:12;;;;;;;;;;;19.60;62.70;;;;;;4811868;29;19925;-74
2022/06/03 16:07:44;;;;;;;;;;;19.60;62.50;;;;;;4828601;29;19920;-78
2022/06/03 16:10:28;;;;;;;;;;;19.60;63.10;;;;;;4828419;29;19920;-72
2022/06/03 16:13:13;;;;;;;;;;;19.70;63.40;;;;;;4841528;29;19988;-77
2022/06/03 16:15:51;;;;;;;;;;;19.70;63.80;;;;;;4830653;29;19931;-76
2022/06/03 16:18:29;;;;;;;;;;;19.80;64.40;;;;;;4846700;29;19924;-77
2022/06/03 16:20:57;;;;;;;;;;;19.80;64.00;;;;;;4847390;29;19936;-77
2022/06/03 16:23:23;;;;;;;;;;;19.80;64.10;;;;;;4830490;29;19924;-78
2022/06/03 16:25:55;;;;;;;;;;;19.80;64.60;;;;;;4828402;29;19947;-77
2022/06/03 16:28:39;;;;;;;;;;;19.90;64.60;;;;;;4812547;29;19932;-77
2022/06/03 16:31:12;;;;;;;;;;;19.90;65.50;;;;;;4835470;29;20367;-78
2022/06/03 16:33:38;;;;;;;;;;;19.90;65.30;;;;;;4846917;29;20018;-77
2022/06/03 16:36:04;;;;;;;;;;;19.90;65.60;;;;;;4830115;29;20019;-77
2022/06/03 16:38:30;;;;;;;;;;;20.00;65.90;;;;;;4845855;29;19925;-79
2022/06/03 16:40:58;;;;;;;;;;;20.00;66.00;;;;;;4839498;29;20015;-76
2022/06/03 16:43:39;;;;;;;;;;;20.00;66.30;;;;;;4828216;29;19939;-77
2022/06/03 16:46:25;;;;;;;;;;;20.10;65.70;;;;;;4842591;29;20100;-73
2022/06/03 16:48:57;;;;;;;;;;;20.10;65.10;;;;;;4828049;29;19932;-75
2022/06/03 16:54:58;;;;;;;;;;;20.20;59.70;;;;;;4799852;29;19920;-78
2022/06/03 16:57:41;;;;;;;;;;;20.20;60.00;;;;;;4795217;29;20257;-78
2022/06/03 17:00:20;;;;;;;;;;;20.30;59.60;;;;;;4794484;29;20403;-77
2022/06/03 17:02:56;;;;;;;;;;;20.20;59.10;;;;;;4826358;29;20322;-78
2022/06/03 17:05:27;;;;;;;;;;;20.30;58.90;;;;;;4796185;29;19978;-78
2022/06/03 17:07:54;;;;;;;;;;;20.20;58.40;;;;;;4812039;29;19990;-77
2022/06/03 17:10:32;;;;;;;;;;;20.20;59.80;;;;;;4796747;29;19973;-78
2022/06/03 17:13:00;;;;;;;;;;;20.20;58.40;;;;;;4826074;29;20357;-78
2022/06/03 17:21:58;;;;;;;;;;;20.20;58.50;;;;;;5713018;24;19932;-75
2022/06/03 17:34:56;;;;;;;;;;;20.10;58.90;;;;;;4695192;30;19926;-76
2022/06/03 17:37:37;;;;;;;;;;;20.10;59.00;;;;;;4736819;30;19922;-78
2022/06/03 17:40:02;;;;;;;;;;;20.00;59.00;;;;;;4773096;30;20039;-76
2022/06/03 17:42:37;;;;;;;;;;;20.00;58.90;;;;;;4742442;30;20008;-79
2022/06/03 17:45:21;;;;;;;;;;;19.90;58.90;;;;;;4808184;29;19979;-77
2022/06/03 17:48:16;;;;;;;;;;;19.80;59.00;;;;;;4809229;29;19944;-78
2022/06/03 17:51:00;;;;;;;;;;;19.80;59.10;;;;;;4789670;29;19925;-76
2022/06/03 17:56:47;;;;;;;;;;;19.60;59.40;;;;;;4792647;29;19925;-76
2022/06/03 17:59:15;;;;;;;;;;;19.50;59.60;;;;;;4801812;29;19925;-78
2022/06/03 19:33:42;;;;;;;;;;;18.80;62.40;;;;;;5331569;24;20047;-72
2022/06/03 19:36:08;;;;;;;;;;;18.70;62.50;;;;;;4827490;29;19924;-75
2022/06/03 19:38:57;;;;;;;;;;;18.80;62.60;;;;;;4845442;29;19934;-76
2022/06/03 19:41:32;;;;;;;;;;;18.70;62.60;;;;;;4804290;29;19924;-77
2022/06/03 19:44:01;;;;;;;;;;;18.70;62.70;;;;;;4847719;29;19924;-77
2022/06/03 19:46:35;;;;;;;;;;;18.70;62.70;;;;;;4831210;29;19924;-79
2022/06/03 19:49:08;;;;;;;;;;;18.70;62.70;;;;;;4831240;29;19924;-76
2022/06/03 19:51:40;;;;;;;;;;;18.70;62.90;;;;;;4847186;29;19932;-80
2022/06/03 19:54:12;;;;;;;;;;;18.60;62.90;;;;;;4847493;29;19936;-78
2022/06/03 19:56:49;;;;;;;;;;;18.60;62.90;;;;;;4831453;29;19928;-76
2022/06/03 19:59:19;;;;;;;;;;;18.60;63.00;;;;;;4846997;29;20336;-78
2022/06/03 20:01:51;;;;;;;;;;;18.60;63.10;;;;;;4846836;29;19924;-79
2022/06/03 20:04:25;;;;;;;;;;;18.50;63.10;;;;;;4847055;29;19983;-78
2022/06/03 20:06:56;;;;;;;;;;;18.50;63.20;;;;;;4830954;29;19931;-78
2022/06/03 20:09:35;;;;;;;;;;;18.50;63.20;;;;;;4830458;29;19924;-79
2022/06/03 20:14:54;;;;;;;;;;;18.40;63.20;;;;;;4828750;29;19929;-79
2022/06/03 20:17:21;;;;;;;;;;;18.50;63.30;;;;;;4812536;29;19932;-81
2022/06/03 20:19:48;;;;;;;;;;;18.50;63.40;;;;;;4828200;29;20019;-77
2022/06/03 20:22:19;;;;;;;;;;;18.40;63.40;;;;;;4828515;29;20347;-78
2022/06/03 20:25:00;;;;;;;;;;;18.40;63.40;;;;;;4828592;29;19971;-78
2022/06/03 20:27:32;;;;;;;;;;;18.40;63.50;;;;;;4823522;29;20241;-76
2022/06/03 20:30:07;;;;;;;;;;;18.30;63.40;;;;;;4830428;29;19993;-79
2022/06/03 20:32:39;;;;;;;;;;;18.30;63.50;;;;;;4846568;29;19932;-76
2022/06/03 20:35:15;;;;;;;;;;;18.30;63.50;;;;;;4846504;29;19936;-77
2022/06/03 20:37:57;;;;;;;;;;;18.30;63.60;;;;;;4847318;29;19924;-78
2022/06/03 20:40:25;;;;;;;;;;;18.30;63.60;;;;;;4846709;29;19936;-76
2022/06/03 20:43:05;;;;;;;;;;;18.20;63.60;;;;;;4830650;29;20019;-76
2022/06/03 20:45:34;;;;;;;;;;;18.20;63.60;;;;;;4830503;29;20345;-79
2022/06/03 20:48:26;;;;;;;;;;;18.20;63.70;;;;;;4842220;29;20007;-78
2022/06/03 20:51:06;;;;;;;;;;;18.20;63.70;;;;;;4795443;29;20332;-78
2022/06/03 20:53:46;;;;;;;;;;;18.20;63.70;;;;;;4830669;29;19943;-79
2022/06/03 20:56:21;;;;;;;;;;;18.20;63.70;;;;;;4845835;29;20340;-77
2022/06/03 20:58:57;;;;;;;;;;;18.10;63.70;;;;;;4846243;29;19924;-75
2022/06/03 21:01:29;;;;;;;;;;;18.10;63.70;;;;;;4846268;29;20255;-76
2022/06/03 21:14:55;;;;;;;;;;;18.00;63.70;;;;;;4827751;29;19993;-78
2022/06/03 21:17:22;;;;;;;;;;;18.10;63.80;;;;;;4829312;29;19966;-79
2022/06/03 21:19:48;;;;;;;;;;;18.10;63.90;;;;;;4823050;29;19986;-78
2022/06/03 21:22:16;;;;;;;;;;;18.00;63.80;;;;;;4829298;29;20368;-75
2022/06/03 21:24:50;;;;;;;;;;;18.00;63.80;;;;;;4796300;29;19920;-78
2022/06/03 21:27:16;;;;;;;;;;;18.00;63.80;;;;;;4827412;29;19958;-78
2022/06/03 21:29:42;;;;;;;;;;;18.10;63.90;;;;;;4811291;29;20069;-78
2022/06/03 21:32:08;;;;;;;;;;;18.00;63.90;;;;;;4826558;29;20344;-78
2022/06/03 21:34:36;;;;;;;;;;;18.00;63.90;;;;;;4811226;29;19928;-78
2022/06/03 21:37:24;;;;;;;;;;;18.00;64.30;;;;;;4845187;29;19924;-81
2022/06/03 21:39:55;;;;;;;;;;;18.00;64.90;;;;;;4845271;29;19959;-77
2022/06/03 21:42:25;;;;;;;;;;;18.10;65.00;;;;;;4845657;29;19932;-77
2022/06/03 21:44:53;;;;;;;;;;;18.10;64.90;;;;;;4845238;29;19947;-77
2022/06/03 21:47:37;;;;;;;;;;;18.10;65.10;;;;;;4844979;29;19924;-75
2022/06/03 21:50:02;;;;;;;;;;;18.10;65.10;;;;;;4829536;29;19964;-79
2022/06/03 21:52:28;;;;;;;;;;;18.20;65.00;;;;;;4813917;29;19967;-76
2022/06/03 21:55:09;;;;;;;;;;;18.10;65.00;;;;;;4828924;29;20016;-77
2022/06/03 21:57:41;;;;;;;;;;;18.20;65.20;;;;;;4845641;29;19931;-80
